Time;durP1;ratioP1;P1;durP2;ratioP2;P2;SDS_P1;SDS_P2;PMS_P1;PMS_P2;Temp;Humidity;BMP_temperature;BMP_pressure;BME280_temperature;BME280_humidity;BME280_pressure;Samples;Min_cycle;Max_cycle;Signal;HPM_P1;HPM_P2
2022/11/06 00:09:34;;;;;;;1.17;0.80;;;;;;;17.45;94.37;100979.84;20794973;28;20061;-85
2022/11/06 00:19:36;;;;;;;1.20;0.80;;;;;;;17.45;94.21;100966.38;20797252;28;20490;-85
2022/11/06 00:29:37;;;;;;;1.35;0.88;;;;;;;17.45;94.17;100966.38;20795808;28;20056;-85
2022/11/06 00:39:39;;;;;;;0.85;0.50;;;;;;;17.44;94.17;100970.06;20795175;28;20455;-84
2022/11/06 00:49:40;;;;;;;1.13;0.80;;;;;;;17.44;94.17;100963.81;20776894;28;20418;-83
2022/11/06 00:59:42;;;;;;;1.40;0.70;;;;;;;17.43;94.11;100973.72;20795057;28;20132;-86
2022/11/06 01:09:43;;;;;;;1.15;0.88;;;;;;;17.43;94.19;100970.16;20793872;28;20501;-86
2022/11/06 01:19:45;;;;;;;0.90;0.80;;;;;;;17.32;93.94;100942.34;20792615;28;20054;-86
2022/11/06 01:29:46;;;;;;;1.33;0.80;;;;;;;17.29;94.04;100926.47;20809032;28;20056;-86
2022/11/06 01:39:48;;;;;;;1.05;0.80;;;;;;;17.22;94.09;100907.31;20806404;28;20544;-86
2022/11/06 01:49:52;;;;;;;1.30;0.60;;;;;;;17.42;94.03;100933.47;20807105;28;20059;-85
2022/11/06 01:59:55;;;;;;;1.57;0.90;;;;;;;17.32;94.08;100909.22;20805121;28;20072;-86
2022/11/06 02:09:56;;;;;;;1.45;0.93;;;;;;;17.41;93.93;100900.34;20806214;28;20568;-86
2022/11/06 02:20:09;;;;;;;1.00;0.60;;;;;;;17.40;94.03;100896.78;20805190;28;20048;-85
2022/11/06 02:30:12;;;;;;;0.65;0.60;;;;;;;17.40;93.93;100895.94;20805118;28;20279;-86
2022/11/06 02:40:14;;;;;;;1.08;0.70;;;;;;;17.30;93.91;100866.28;20801115;28;20053;-85
2022/11/06 02:50:23;;;;;;;1.00;0.70;;;;;;;17.39;93.83;100873.56;20801555;28;20049;-86
2022/11/06 03:00:26;;;;;;;1.33;0.77;;;;;;;17.39;93.96;100872.72;20785447;28;20107;-86
2022/11/06 03:10:32;;;;;;;0.90;0.63;;;;;;;17.27;93.97;100847.72;20799749;28;20046;-86
2022/11/06 03:20:39;;;;;;;0.80;0.68;;;;;;;17.39;93.95;100859.25;20799079;28;20050;-86
2022/11/06 03:30:54;;;;;;;0.80;0.80;;;;;;;17.38;93.71;100857.56;20799000;28;20552;-86
2022/11/06 03:41:03;;;;;;;1.00;0.70;;;;;;;17.12;93.92;100831.06;20796984;28;20057;-86
2022/11/06 03:51:09;;;;;;;0.70;0.57;;;;;;;17.29;93.86;100855.69;20795991;28;20148;-86
2022/11/06 04:01:12;;;;;;;1.23;0.93;;;;;;;17.37;93.79;100861.25;20792269;28;20053;-86
2022/11/06 04:21:55;;;;;;;3.35;1.30;;;;;;;17.50;98.12;100861.84;20769618;28;20059;-88
2022/11/06 04:32:04;;;;;;;5.78;1.95;;;;;;;17.30;100.00;100817.03;20773326;28;20060;-89
2022/11/06 04:42:12;;;;;;;2.63;1.15;;;;;;;17.52;98.11;100835.66;20786076;28;20049;-87
2022/11/06 04:52:18;;;;;;;2.10;1.10;;;;;;;17.66;97.15;100855.97;20775325;28;20057;-85
2022/11/06 05:02:19;;;;;;;1.75;1.00;;;;;;;17.66;96.48;100839.81;20800327;28;20075;-84
2022/11/06 05:12:21;;;;;;;1.25;1.00;;;;;;;16.89;96.19;100712.03;20802872;28;20520;-84
2022/11/06 05:32:42;;;;;;;3.40;0.88;;;;;;;17.56;96.14;100817.41;20803966;28;20049;-84
2022/11/06 05:42:44;;;;;;;2.53;1.20;;;;;;;17.46;96.25;100798.53;20807482;28;20045;-85
2022/11/06 05:52:45;;;;;;;1.85;1.08;;;;;;;17.51;96.23;100792.75;20807235;28;20121;-84
2022/11/06 06:02:47;;;;;;;1.90;0.80;;;;;;;17.49;96.05;100806.31;20807988;28;20409;-84
2022/11/06 06:12:49;;;;;;;0.95;0.80;;;;;;;17.48;96.10;100806.47;20803936;28;20104;-84
2022/11/06 06:22:55;;;;;;;2.17;1.05;;;;;;;17.47;96.15;100797.53;20806632;28;20053;-84
2022/11/06 06:33:02;;;;;;;1.30;0.80;;;;;;;17.41;96.08;100787.31;20803257;28;20049;-84
2022/11/06 06:43:04;;;;;;;1.98;0.90;;;;;;;17.05;95.85;100722.31;20804425;28;20046;-85
2022/11/06 06:53:05;;;;;;;1.85;0.98;;;;;;;17.34;95.84;100753.88;20804137;28;20049;-84
2022/11/06 07:03:07;;;;;;;0.77;0.60;;;;;;;17.39;95.81;100773.16;20801208;28;20049;-85
2022/11/06 07:13:08;;;;;;;1.30;0.80;;;;;;;17.22;95.86;100758.50;20800388;28;20057;-85
2022/11/06 07:23:10;;;;;;;2.10;1.10;;;;;;;17.42;95.86;100789.03;20799137;28;20075;-85
2022/11/06 07:33:11;;;;;;;2.35;1.00;;;;;;;17.42;95.81;100783.63;20800088;28;20049;-84
2022/11/06 07:43:13;;;;;;;1.27;0.85;;;;;;;17.41;95.68;100779.25;20799721;28;20075;-84
2022/11/06 07:53:14;;;;;;;1.02;0.52;;;;;;;17.41;95.78;100790.00;20799433;28;20052;-84
2022/11/06 08:03:17;;;;;;;0.93;0.60;;;;;;;17.40;95.56;100778.38;20798324;28;20133;-85
2022/11/06 08:13:18;;;;;;;1.25;0.75;;;;;;;17.43;95.58;100762.94;20796504;28;20121;-83
2022/11/06 08:23:20;;;;;;;1.42;0.60;;;;;;;17.34;95.59;100737.72;20795654;28;20049;-85
2022/11/06 08:33:22;;;;;;;0.70;0.60;;;;;;;17.42;95.49;100763.94;20715177;28;20046;-85
2022/11/06 08:43:25;;;;;;;1.08;0.68;;;;;;;17.41;95.54;100752.34;20714839;28;20046;-85
2022/11/06 08:53:27;;;;;;;0.82;0.50;;;;;;;17.42;95.51;100750.47;20714158;28;20115;-85
2022/11/06 09:03:28;;;;;;;0.93;0.75;;;;;;;17.40;95.51;100742.56;20712147;28;20058;-85
2022/11/06 09:13:30;;;;;;;1.48;1.13;;;;;;;17.41;95.30;100720.03;20713309;28;20069;-84
2022/11/06 09:23:31;;;;;;;0.75;0.60;;;;;;;17.41;95.47;100709.28;20736529;28;20049;-84
2022/11/06 09:33:33;;;;;;;0.82;0.60;;;;;;;17.40;95.27;100689.56;20794272;28;20053;-84
2022/11/06 09:43:56;;;;;;;0.70;0.70;;;;;;;17.40;95.37;100665.34;20796575;28;20080;-85
2022/11/06 09:54:12;;;;;;;0.85;0.60;;;;;;;17.40;95.27;100651.91;20808251;28;20053;-84
2022/11/06 10:04:23;;;;;;;0.77;0.40;;;;;;;17.41;95.08;100655.47;20806294;28;20053;-84
2022/11/06 10:14:48;;;;;;;1.80;0.70;;;;;;;17.40;95.21;100630.38;20806287;28;20053;-84
2022/11/06 10:25:08;;;;;;;;;;;;;;;17.41;95.02;100642.00;20804620;28;20058;-84
2022/11/06 10:35:25;;;;;;;0.47;0.47;;;;;;;17.40;95.10;100653.75;20805426;28;19932;-85
2022/11/06 10:45:28;;;;;;;1.20;0.70;;;;;;;17.40;95.15;100648.38;20787087;28;20049;-85
2022/11/06 10:55:59;;;;;;;0.57;0.52;;;;;;;17.33;95.08;100628.41;20802862;28;20129;-85
2022/11/06 11:06:02;;;;;;;1.10;0.77;;;;;;;17.28;95.03;100587.63;20802726;28;20506;-85
2022/11/06 11:16:12;;;;;;;0.68;0.50;;;;;;;17.29;94.98;100574.00;20784631;28;20058;-85
2022/11/06 11:26:20;;;;;;;1.25;0.50;;;;;;;17.39;94.82;100574.84;20799478;28;20053;-85
2022/11/06 11:36:22;;;;;;;0.40;0.40;;;;;;;17.22;95.01;100533.34;20798580;28;20052;-85
2022/11/06 11:46:24;;;;;;;0.38;0.32;;;;;;;17.39;94.83;100553.31;20797662;28;20046;-84
2022/11/06 11:56:27;;;;;;;1.38;0.50;;;;;;;17.38;94.74;100535.47;20797344;28;20053;-85
2022/11/06 12:06:54;;;;;;;0.77;0.45;;;;;;;17.39;94.74;100502.19;20781346;28;20491;-84
2022/11/06 12:17:01;;;;;;;0.40;0.40;;;;;;;17.39;94.72;100493.28;20776674;28;20045;-85
2022/11/06 12:27:11;;;;;;;1.15;0.60;;;;;;;17.28;94.76;100463.84;20767990;28;20049;-84
2022/11/06 12:37:23;;;;;;;0.85;0.50;;;;;;;17.40;94.81;100460.00;20769400;28;20053;-84
2022/11/06 12:47:40;;;;;;;0.73;0.50;;;;;;;17.30;94.63;100411.59;20771129;28;20048;-84
2022/11/06 12:58:00;;;;;;;0.30;0.30;;;;;;;17.38;94.77;100444.00;20775607;28;20045;-84
2022/11/06 13:08:29;;;;;;;0.43;0.40;;;;;;;17.37;94.55;100414.56;20736542;28;20461;-84
2022/11/06 13:18:38;;;;;;;0.30;0.30;;;;;;;17.37;94.55;100395.72;20734676;28;20057;-84
2022/11/06 13:28:44;;;;;;;0.43;0.38;;;;;;;17.30;94.53;100381.16;20791351;28;20121;-84
2022/11/06 13:38:58;;;;;;;1.00;0.57;;;;;;;17.37;94.56;100376.88;20767839;28;20046;-84
2022/11/06 13:49:07;;;;;;;0.90;0.50;;;;;;;17.36;94.66;100394.84;20745205;28;20058;-84
2022/11/06 13:59:21;;;;;;;1.08;0.43;;;;;;;17.14;94.40;100350.31;20721358;28;20064;-85
2022/11/06 14:09:26;;;;;;;0.90;0.68;;;;;;;17.14;94.84;100357.53;20726597;28;20046;-85
2022/11/06 14:19:29;;;;;;;1.40;0.75;;;;;;;17.40;94.27;100387.34;20768014;28;20529;-84
2022/11/06 14:29:30;;;;;;;0.98;0.57;;;;;;;17.44;93.26;100385.22;20789389;28;20053;-88
2022/11/06 14:39:53;;;;;;;1.42;0.40;;;;;;;17.45;93.04;100373.44;20729012;28;20517;-95
2022/11/06 14:49:57;;;;;;;0.70;0.50;;;;;;;17.32;92.85;100350.41;20776965;28;20046;-89
2022/11/06 14:59:59;;;;;;;2.03;0.60;;;;;;;17.42;92.87;100349.53;20762034;28;20053;-92
2022/11/06 15:10:00;;;;;;;1.17;0.63;;;;;;;16.95;93.14;100271.34;20770923;28;20584;-90
2022/11/06 15:20:13;;;;;;;1.55;0.55;;;;;;;17.33;92.98;100327.06;20771025;28;20052;-93
2022/11/06 15:30:17;;;;;;;1.25;0.50;;;;;;;17.38;93.15;100336.38;20772037;28;20521;-89
2022/11/06 15:40:26;;;;;;;0.85;0.50;;;;;;;17.38;93.18;100324.78;20776251;28;20050;-85
2022/11/06 15:50:30;;;;;;;2.10;0.50;;;;;;;17.00;93.14;100249.41;20747280;28;20056;-83
2022/11/06 16:00:34;;;;;;;2.30;0.88;;;;;;;17.35;93.36;100298.16;20755097;28;20052;-82
2022/11/06 16:10:37;;;;;;;2.03;0.70;;;;;;;17.35;93.29;100276.63;20747180;28;20060;-82
2022/11/06 16:20:38;;;;;;;1.48;0.57;;;;;;;17.35;93.44;100268.56;20781528;28;20045;-81
2022/11/06 16:30:40;;;;;;;1.58;0.70;;;;;;;17.33;93.61;100271.38;20748341;28;20444;-83
2022/11/06 16:40:51;;;;;;;0.38;0.38;;;;;;;17.34;93.63;100283.00;20772043;28;20583;-89
2022/11/06 16:50:54;;;;;;;3.10;0.90;;;;;;;17.35;95.75;100282.84;20758947;28;20132;-87
2022/11/06 17:00:59;;;;;;;4.28;0.90;;;;;;;17.20;96.90;100244.00;20732248;28;20049;-89
2022/11/06 17:11:20;;;;;;;2.15;0.95;;;;;;;17.48;97.00;100241.31;20760409;28;1072747;-89
2022/11/06 17:21:23;;;;;;;3.58;0.82;;;;;;;17.53;97.92;100210.25;20781936;28;20409;-94
2022/11/06 17:31:25;;;;;;;3.22;0.60;;;;;;;17.60;96.71;100188.97;20793672;28;20068;-95
2022/11/06 17:41:30;;;;;;;2.90;0.70;;;;;;;17.59;95.89;100172.97;20831371;28;20049;-91
2022/11/06 17:51:52;;;;;;;2.67;0.80;;;;;;;17.56;95.68;100154.44;20683563;28;20415;-92
2022/11/06 18:01:54;;;;;;;3.13;0.82;;;;;;;17.47;95.62;100140.91;20744316;28;20060;-91
2022/11/06 18:11:56;;;;;;;2.67;0.60;;;;;;;17.50;95.75;100137.06;20811486;28;20056;-91
2022/11/06 18:21:57;;;;;;;2.58;0.95;;;;;;;17.42;95.67;100124.38;20805974;28;20049;-91
2022/11/06 18:32:06;;;;;;;3.60;0.80;;;;;;;17.45;95.70;100125.88;20793062;28;20056;-93
2022/11/06 18:42:08;;;;;;;1.65;0.70;;;;;;;17.32;95.69;100097.50;20809673;28;20053;-91
2022/11/06 18:52:09;;;;;;;2.08;0.70;;;;;;;17.40;95.50;100126.34;20837108;28;20080;-91
2022/11/06 19:02:11;;;;;;;1.42;0.50;;;;;;;17.40;95.64;100120.97;20799656;28;20421;-90
2022/11/06 19:12:13;;;;;;;0.90;0.68;;;;;;;17.38;95.38;100115.75;20811487;28;20495;-92
2022/11/06 19:22:14;;;;;;;2.50;0.70;;;;;;;17.25;95.42;100080.28;20833724;28;20055;-91
2022/11/06 19:32:15;;;;;;;1.42;0.60;;;;;;;17.37;95.40;100105.97;20815064;28;20049;-91
2022/11/06 19:42:17;;;;;;;1.23;0.70;;;;;;;17.05;95.14;100044.63;20728919;28;20046;-93
2022/11/06 19:52:19;;;;;;;2.00;0.70;;;;;;;17.18;95.41;100082.72;20769336;28;20099;-91
2022/11/06 20:02:40;;;;;;;1.15;0.70;;;;;;;17.22;95.26;100077.91;20815752;28;20053;-91
2022/11/06 20:12:42;;;;;;;0.98;0.55;;;;;;;17.34;95.27;100087.44;20786986;28;20054;-91
2022/11/06 20:22:44;;;;;;;2.90;0.90;;;;;;;17.35;95.25;100082.94;20779627;28;20575;-92
